Ana Sayfa
METAR-TAF:

METAR-TAF

Havaalanları :

Zvartnots Uluslararası Havalimanı

Erivan, Ermenistan

Enlem: 40-08-50N, Boylam: 044-23-45E, yükseklik: 865 m

Güncel hava durumu gözlemi

Rapor saat 08:00 UTC de 40 dakika önce yapıldı.
Rüzgar güneydoğudan 5 kt
Sıcaklık 8°C
Nem 71%
Basınç 1022 hPa
Görüş mesafesi: 6000 m
2300 ft yükseklikte parçalı bulutlu

METAR: UDYZ 230800Z 13005KT 6000 SCT023 08/03 Q1022 R09/190065 NOSIG

Saat: 12:40 (08:40 UTC)

Tahmin

Rapor saat 05:02 UTC de 3 saat ve 38 dakika önce yapıldı.
Ayın 23'si saat 06 UTC'den ayın 24'si saat 06 UTC'ye kadar geçerli Tahmin
Rüzgar batı/güneybatıdan 6 kt
Görüş mesafesi: 6000 m
4000 ft yükseklikte parçalı bulutlu
10000 ft yükseklikte parçalı çok bulutlu
Geçici
ayın 23'si saat 06 UTC'den ayın 23'si saat 09 UTC'ye kadar
Görüş mesafesi: 2000 m
1000 ft yükseklikte parçalı çok bulutlu
yağmur, Pus

TAF: UDYZ 230502Z 2306/2406 24006KT 6000 SCT040 BKN100 TEMPO 2306/2309 2000 RA BR BKN010

4.000'den fazla havaalanı için hava durumu gözlemleri ve tahminleri (METAR ve TAF raporları).

Kullanılabilir istasyonlar harita üzerinde sarı ve kırmızı noktalarla gösterilir.

İstasyonun adını görmek için fareyi noktanın üzerinde gezdirin.

Sonrasında hava gözlem ve tahminlerini görmek için tıklayın.

Haritayı değiştirmek için: yaklaştırmak için siyah artı işaretli yeşil düğmeye ve uzaklaştırmak için de eksi işaretli düğmeye hızla tıklayın; bitişik haritalar için yeşil okları kullanın.


METAR-TAF: